sensor_id;sensor_type;location;lat;lon;timestamp;P1;durP1;ratioP1;P2;durP2;ratioP2
10719;SDS011;5411;58.386;15.560;2022-11-21T00:00:30;1.07;;;1.07;;
10719;SDS011;5411;58.386;15.560;2022-11-21T00:02:59;1.20;;;1.20;;
10719;SDS011;5411;58.386;15.560;2022-11-21T00:05:28;0.90;;;0.87;;
10719;SDS011;5411;58.386;15.560;2022-11-21T00:07:58;1.10;;;1.10;;
10719;SDS011;5411;58.386;15.560;2022-11-21T00:10:26;1.10;;;1.10;;
10719;SDS011;5411;58.386;15.560;2022-11-21T00:12:54;0.97;;;0.90;;
10719;SDS011;5411;58.386;15.560;2022-11-21T00:15:23;0.97;;;0.97;;
10719;SDS011;5411;58.386;15.560;2022-11-21T00:17:53;1.23;;;1.20;;
10719;SDS011;5411;58.386;15.560;2022-11-21T00:20:21;1.07;;;1.07;;
10719;SDS011;5411;58.386;15.560;2022-11-21T00:22:49;1.40;;;1.30;;
10719;SDS011;5411;58.386;15.560;2022-11-21T00:25:18;1.40;;;1.40;;
10719;SDS011;5411;58.386;15.560;2022-11-21T00:27:47;1.20;;;1.10;;
10719;SDS011;5411;58.386;15.560;2022-11-21T00:30:15;1.13;;;1.13;;
10719;SDS011;5411;58.386;15.560;2022-11-21T00:32:43;0.90;;;0.90;;
10719;SDS011;5411;58.386;15.560;2022-11-21T00:35:11;0.97;;;0.97;;
10719;SDS011;5411;58.386;15.560;2022-11-21T00:37:39;1.00;;;1.00;;
10719;SDS011;5411;58.386;15.560;2022-11-21T00:43:01;0.90;;;0.90;;
10719;SDS011;5411;58.386;15.560;2022-11-21T00:45:30;1.10;;;1.10;;
10719;SDS011;5411;58.386;15.560;2022-11-21T00:47:58;1.10;;;1.10;;
10719;SDS011;5411;58.386;15.560;2022-11-21T00:50:26;1.17;;;1.13;;
10719;SDS011;5411;58.386;15.560;2022-11-21T00:52:54;1.27;;;1.10;;
10719;SDS011;5411;58.386;15.560;2022-11-21T00:55:23;0.97;;;0.93;;
10719;SDS011;5411;58.386;15.560;2022-11-21T00:57:52;1.00;;;1.00;;
10719;SDS011;5411;58.386;15.560;2022-11-21T01:00:21;1.17;;;1.17;;
10719;SDS011;5411;58.386;15.560;2022-11-21T01:02:49;1.10;;;1.00;;
10719;SDS011;5411;58.386;15.560;2022-11-21T01:05:17;1.20;;;1.20;;
10719;SDS011;5411;58.386;15.560;2022-11-21T01:07:46;1.23;;;1.13;;
10719;SDS011;5411;58.386;15.560;2022-11-21T01:10:14;2.77;;;0.90;;
10719;SDS011;5411;58.386;15.560;2022-11-21T01:12:42;0.93;;;0.93;;
10719;SDS011;5411;58.386;15.560;2022-11-21T01:15:12;1.00;;;1.00;;
10719;SDS011;5411;58.386;15.560;2022-11-21T01:17:40;0.90;;;0.90;;
10719;SDS011;5411;58.386;15.560;2022-11-21T01:20:09;0.90;;;0.90;;
10719;SDS011;5411;58.386;15.560;2022-11-21T01:22:37;1.20;;;1.20;;
10719;SDS011;5411;58.386;15.560;2022-11-21T01:25:06;0.90;;;0.90;;
10719;SDS011;5411;58.386;15.560;2022-11-21T01:27:34;1.40;;;1.30;;
10719;SDS011;5411;58.386;15.560;2022-11-21T01:30:03;1.00;;;1.00;;
10719;SDS011;5411;58.386;15.560;2022-11-21T01:32:33;1.00;;;1.00;;
10719;SDS011;5411;58.386;15.560;2022-11-21T01:35:01;0.90;;;0.90;;
10719;SDS011;5411;58.386;15.560;2022-11-21T01:37:29;1.00;;;1.00;;
10719;SDS011;5411;58.386;15.560;2022-11-21T01:39:58;1.10;;;1.00;;
10719;SDS011;5411;58.386;15.560;2022-11-21T01:42:27;0.90;;;0.90;;
10719;SDS011;5411;58.386;15.560;2022-11-21T01:44:55;1.23;;;1.23;;
10719;SDS011;5411;58.386;15.560;2022-11-21T01:47:23;0.90;;;0.90;;
10719;SDS011;5411;58.386;15.560;2022-11-21T01:49:53;1.20;;;1.10;;
10719;SDS011;5411;58.386;15.560;2022-11-21T01:52:22;0.90;;;0.90;;
10719;SDS011;5411;58.386;15.560;2022-11-21T01:54:56;1.50;;;1.40;;
10719;SDS011;5411;58.386;15.560;2022-11-21T01:57:29;0.90;;;0.90;;
10719;SDS011;5411;58.386;15.560;2022-11-21T02:00:01;0.90;;;0.90;;
10719;SDS011;5411;58.386;15.560;2022-11-21T02:02:35;1.20;;;1.10;;
10719;SDS011;5411;58.386;15.560;2022-11-21T02:05:07;1.40;;;1.40;;
10719;SDS011;5411;58.386;15.560;2022-11-21T02:07:40;1.13;;;1.10;;
10719;SDS011;5411;58.386;15.560;2022-11-21T02:10:11;1.20;;;1.10;;
10719;SDS011;5411;58.386;15.560;2022-11-21T02:12:42;1.10;;;1.10;;
10719;SDS011;5411;58.386;15.560;2022-11-21T02:15:15;1.50;;;1.17;;
10719;SDS011;5411;58.386;15.560;2022-11-21T02:17:44;1.00;;;1.00;;
10719;SDS011;5411;58.386;15.560;2022-11-21T02:20:14;1.20;;;1.10;;
10719;SDS011;5411;58.386;15.560;2022-11-21T02:22:45;1.13;;;1.00;;
10719;SDS011;5411;58.386;15.560;2022-11-21T02:25:22;1.10;;;1.10;;
10719;SDS011;5411;58.386;15.560;2022-11-21T02:27:53;1.77;;;1.10;;
10719;SDS011;5411;58.386;15.560;2022-11-21T02:30:25;0.90;;;0.90;;
10719;SDS011;5411;58.386;15.560;2022-11-21T02:32:54;1.37;;;1.27;;
10719;SDS011;5411;58.386;15.560;2022-11-21T02:35:22;1.30;;;1.20;;
10719;SDS011;5411;58.386;15.560;2022-11-21T02:37:52;0.90;;;0.90;;
10719;SDS011;5411;58.386;15.560;2022-11-21T02:40:28;0.97;;;0.97;;
10719;SDS011;5411;58.386;15.560;2022-11-21T02:43:03;1.17;;;1.10;;
10719;SDS011;5411;58.386;15.560;2022-11-21T02:45:37;1.13;;;1.13;;
10719;SDS011;5411;58.386;15.560;2022-11-21T02:48:07;1.27;;;1.27;;
10719;SDS011;5411;58.386;15.560;2022-11-21T02:50:35;1.40;;;1.10;;
10719;SDS011;5411;58.386;15.560;2022-11-21T02:53:05;1.20;;;1.10;;
10719;SDS011;5411;58.386;15.560;2022-11-21T02:55:37;1.50;;;1.40;;
10719;SDS011;5411;58.386;15.560;2022-11-21T02:58:06;1.13;;;1.10;;
10719;SDS011;5411;58.386;15.560;2022-11-21T03:00:36;1.10;;;1.10;;
10719;SDS011;5411;58.386;15.560;2022-11-21T03:03:08;1.00;;;1.00;;
10719;SDS011;5411;58.386;15.560;2022-11-21T03:05:36;1.03;;;1.03;;
10719;SDS011;5411;58.386;15.560;2022-11-21T03:08:06;1.10;;;1.10;;
10719;SDS011;5411;58.386;15.560;2022-11-21T03:10:35;0.90;;;0.90;;
10719;SDS011;5411;58.386;15.560;2022-11-21T03:13:04;2.00;;;1.00;;
10719;SDS011;5411;58.386;15.560;2022-11-21T03:15:34;1.00;;;1.00;;
10719;SDS011;5411;58.386;15.560;2022-11-21T03:18:03;1.23;;;1.20;;
10719;SDS011;5411;58.386;15.560;2022-11-21T03:20:31;1.40;;;1.40;;
10719;SDS011;5411;58.386;15.560;2022-11-21T03:23:01;1.00;;;1.00;;
10719;SDS011;5411;58.386;15.560;2022-11-21T03:25:29;0.93;;;0.90;;
10719;SDS011;5411;58.386;15.560;2022-11-21T03:27:58;0.87;;;0.87;;
10719;SDS011;5411;58.386;15.560;2022-11-21T03:30:26;0.87;;;0.83;;
10719;SDS011;5411;58.386;15.560;2022-11-21T03:32:55;1.97;;;1.87;;
10719;SDS011;5411;58.386;15.560;2022-11-21T03:35:23;1.07;;;1.00;;
10719;SDS011;5411;58.386;15.560;2022-11-21T03:37:54;1.40;;;1.37;;
10719;SDS011;5411;58.386;15.560;2022-11-21T03:40:23;1.10;;;1.00;;
10719;SDS011;5411;58.386;15.560;2022-11-21T03:42:51;1.30;;;1.30;;
10719;SDS011;5411;58.386;15.560;2022-11-21T03:45:20;1.10;;;1.00;;
10719;SDS011;5411;58.386;15.560;2022-11-21T03:47:48;1.27;;;1.17;;
10719;SDS011;5411;58.386;15.560;2022-11-21T03:50:16;0.90;;;0.90;;
10719;SDS011;5411;58.386;15.560;2022-11-21T03:52:46;1.30;;;1.20;;
10719;SDS011;5411;58.386;15.560;2022-11-21T03:55:14;1.00;;;1.00;;
10719;SDS011;5411;58.386;15.560;2022-11-21T03:57:42;1.20;;;1.20;;
10719;SDS011;5411;58.386;15.560;2022-11-21T04:00:11;1.00;;;1.00;;
10719;SDS011;5411;58.386;15.560;2022-11-21T04:02:42;1.30;;;1.30;;
10719;SDS011;5411;58.386;15.560;2022-11-21T04:05:10;1.00;;;1.00;;
10719;SDS011;5411;58.386;15.560;2022-11-21T04:07:38;1.33;;;1.17;;
10719;SDS011;5411;58.386;15.560;2022-11-21T04:10:06;0.90;;;0.90;;
10719;SDS011;5411;58.386;15.560;2022-11-21T04:12:35;1.47;;;1.37;;
10719;SDS011;5411;58.386;15.560;2022-11-21T04:15:03;1.40;;;1.30;;
10719;SDS011;5411;58.386;15.560;2022-11-21T04:17:38;1.30;;;1.30;;
10719;SDS011;5411;58.386;15.560;2022-11-21T04:20:08;1.13;;;1.13;;
10719;SDS011;5411;58.386;15.560;2022-11-21T04:22:37;1.30;;;1.20;;
10719;SDS011;5411;58.386;15.560;2022-11-21T04:25:06;1.30;;;1.20;;
10719;SDS011;5411;58.386;15.560;2022-11-21T04:27:34;1.37;;;1.27;;
10719;SDS011;5411;58.386;15.560;2022-11-21T04:30:03;1.63;;;1.50;;
10719;SDS011;5411;58.386;15.560;2022-11-21T04:32:32;1.30;;;1.20;;
10719;SDS011;5411;58.386;15.560;2022-11-21T04:35:00;1.40;;;1.30;;
10719;SDS011;5411;58.386;15.560;2022-11-21T04:37:29;1.83;;;1.30;;
10719;SDS011;5411;58.386;15.560;2022-11-21T04:39:58;1.80;;;1.63;;
10719;SDS011;5411;58.386;15.560;2022-11-21T04:42:26;1.57;;;1.47;;
10719;SDS011;5411;58.386;15.560;2022-11-21T04:44:54;1.30;;;1.20;;
10719;SDS011;5411;58.386;15.560;2022-11-21T04:47:22;1.73;;;1.63;;
10719;SDS011;5411;58.386;15.560;2022-11-21T04:49:50;2.17;;;1.70;;
10719;SDS011;5411;58.386;15.560;2022-11-21T04:52:18;1.73;;;1.63;;
10719;SDS011;5411;58.386;15.560;2022-11-21T04:54:47;2.10;;;1.90;;
10719;SDS011;5411;58.386;15.560;2022-11-21T04:57:15;1.70;;;1.60;;
10719;SDS011;5411;58.386;15.560;2022-11-21T04:59:43;1.83;;;1.70;;
10719;SDS011;5411;58.386;15.560;2022-11-21T05:02:11;1.60;;;1.50;;
10719;SDS011;5411;58.386;15.560;2022-11-21T05:04:39;1.90;;;1.80;;
10719;SDS011;5411;58.386;15.560;2022-11-21T05:07:07;2.70;;;1.93;;
10719;SDS011;5411;58.386;15.560;2022-11-21T05:09:35;1.77;;;1.60;;
10719;SDS011;5411;58.386;15.560;2022-11-21T05:12:05;2.13;;;1.93;;
10719;SDS011;5411;58.386;15.560;2022-11-21T05:14:51;2.27;;;2.07;;
10719;SDS011;5411;58.386;15.560;2022-11-21T05:17:18;1.63;;;1.53;;
10719;SDS011;5411;58.386;15.560;2022-11-21T05:19:47;3.70;;;2.30;;
10719;SDS011;5411;58.386;15.560;2022-11-21T05:22:15;1.90;;;1.80;;
10719;SDS011;5411;58.386;15.560;2022-11-21T05:24:43;2.63;;;2.27;;
10719;SDS011;5411;58.386;15.560;2022-11-21T05:27:12;2.50;;;1.97;;
10719;SDS011;5411;58.386;15.560;2022-11-21T05:29:40;2.37;;;2.17;;
10719;SDS011;5411;58.386;15.560;2022-11-21T05:32:08;2.57;;;1.80;;
10719;SDS011;5411;58.386;15.560;2022-11-21T05:34:36;2.40;;;2.20;;
10719;SDS011;5411;58.386;15.560;2022-11-21T05:37:04;3.83;;;2.17;;
10719;SDS011;5411;58.386;15.560;2022-11-21T05:39:34;4.43;;;2.07;;
10719;SDS011;5411;58.386;15.560;2022-11-21T05:42:02;2.23;;;2.03;;
10719;SDS011;5411;58.386;15.560;2022-11-21T05:44:32;6.20;;;2.37;;
10719;SDS011;5411;58.386;15.560;2022-11-21T05:46:59;6.23;;;2.50;;
10719;SDS011;5411;58.386;15.560;2022-11-21T05:49:27;4.87;;;2.50;;
10719;SDS011;5411;58.386;15.560;2022-11-21T05:51:55;3.27;;;2.30;;
10719;SDS011;5411;58.386;15.560;2022-11-21T05:54:23;3.87;;;2.50;;
10719;SDS011;5411;58.386;15.560;2022-11-21T05:56:51;3.40;;;2.40;;
10719;SDS011;5411;58.386;15.560;2022-11-21T05:59:20;10.03;;;2.00;;
10719;SDS011;5411;58.386;15.560;2022-11-21T06:01:49;2.97;;;1.80;;
10719;SDS011;5411;58.386;15.560;2022-11-21T06:04:35;5.03;;;1.90;;
10719;SDS011;5411;58.386;15.560;2022-11-21T06:07:03;4.27;;;2.10;;
10719;SDS011;5411;58.386;15.560;2022-11-21T06:09:31;4.30;;;1.97;;
10719;SDS011;5411;58.386;15.560;2022-11-21T06:11:59;7.37;;;2.30;;
10719;SDS011;5411;58.386;15.560;2022-11-21T06:14:27;4.80;;;2.17;;
10719;SDS011;5411;58.386;15.560;2022-11-21T06:16:57;5.13;;;2.30;;
10719;SDS011;5411;58.386;15.560;2022-11-21T06:19:25;9.67;;;2.63;;
10719;SDS011;5411;58.386;15.560;2022-11-21T06:21:54;3.40;;;2.47;;
10719;SDS011;5411;58.386;15.560;2022-11-21T06:24:22;3.57;;;2.53;;
10719;SDS011;5411;58.386;15.560;2022-11-21T06:26:50;3.60;;;2.43;;
10719;SDS011;5411;58.386;15.560;2022-11-21T06:29:19;3.23;;;2.30;;
10719;SDS011;5411;58.386;15.560;2022-11-21T06:31:47;2.50;;;2.20;;
10719;SDS011;5411;58.386;15.560;2022-11-21T06:34:17;2.43;;;2.23;;
10719;SDS011;5411;58.386;15.560;2022-11-21T06:36:45;3.57;;;2.30;;
10719;SDS011;5411;58.386;15.560;2022-11-21T06:39:16;2.30;;;2.00;;
10719;SDS011;5411;58.386;15.560;2022-11-21T06:41:44;2.93;;;2.20;;
10719;SDS011;5411;58.386;15.560;2022-11-21T06:44:16;2.63;;;1.97;;
10719;SDS011;5411;58.386;15.560;2022-11-21T06:46:44;2.50;;;2.27;;
10719;SDS011;5411;58.386;15.560;2022-11-21T06:49:18;3.47;;;2.20;;
10719;SDS011;5411;58.386;15.560;2022-11-21T06:51:47;3.03;;;2.50;;
10719;SDS011;5411;58.386;15.560;2022-11-21T06:54:15;2.20;;;1.90;;
10719;SDS011;5411;58.386;15.560;2022-11-21T06:56:44;3.30;;;2.60;;
10719;SDS011;5411;58.386;15.560;2022-11-21T06:59:18;3.13;;;2.07;;
10719;SDS011;5411;58.386;15.560;2022-11-21T07:01:46;2.77;;;2.10;;
10719;SDS011;5411;58.386;15.560;2022-11-21T07:04:15;5.17;;;2.50;;
10719;SDS011;5411;58.386;15.560;2022-11-21T07:06:44;11.53;;;2.50;;
10719;SDS011;5411;58.386;15.560;2022-11-21T07:09:12;11.13;;;2.50;;
10719;SDS011;5411;58.386;15.560;2022-11-21T07:11:58;25.27;;;3.80;;
10719;SDS011;5411;58.386;15.560;2022-11-21T07:14:46;19.90;;;2.80;;
10719;SDS011;5411;58.386;15.560;2022-11-21T07:17:13;21.90;;;2.93;;
10719;SDS011;5411;58.386;15.560;2022-11-21T07:19:41;8.60;;;2.63;;
10719;SDS011;5411;58.386;15.560;2022-11-21T07:22:11;8.20;;;2.40;;
10719;SDS011;5411;58.386;15.560;2022-11-21T07:24:39;5.17;;;2.10;;
10719;SDS011;5411;58.386;15.560;2022-11-21T07:27:07;8.43;;;2.27;;
10719;SDS011;5411;58.386;15.560;2022-11-21T07:29:35;14.70;;;2.63;;
10719;SDS011;5411;58.386;15.560;2022-11-21T07:32:03;10.33;;;2.50;;
10719;SDS011;5411;58.386;15.560;2022-11-21T07:34:31;37.90;;;4.20;;
10719;SDS011;5411;58.386;15.560;2022-11-21T07:36:59;36.67;;;3.20;;
10719;SDS011;5411;58.386;15.560;2022-11-21T07:39:33;10.93;;;2.57;;
10719;SDS011;5411;58.386;15.560;2022-11-21T07:42:01;27.43;;;3.50;;
10719;SDS011;5411;58.386;15.560;2022-11-21T07:44:29;21.07;;;2.93;;
10719;SDS011;5411;58.386;15.560;2022-11-21T07:46:57;23.57;;;2.97;;
10719;SDS011;5411;58.386;15.560;2022-11-21T07:49:25;11.90;;;2.93;;
10719;SDS011;5411;58.386;15.560;2022-11-21T07:51:53;11.40;;;2.73;;
10719;SDS011;5411;58.386;15.560;2022-11-21T07:54:21;21.07;;;3.00;;
10719;SDS011;5411;58.386;15.560;2022-11-21T07:56:52;20.83;;;2.83;;
10719;SDS011;5411;58.386;15.560;2022-11-21T07:59:20;24.47;;;3.13;;
10719;SDS011;5411;58.386;15.560;2022-11-21T08:01:49;19.87;;;3.70;;
10719;SDS011;5411;58.386;15.560;2022-11-21T08:04:17;16.07;;;2.97;;
10719;SDS011;5411;58.386;15.560;2022-11-21T08:06:45;32.27;;;3.47;;
10719;SDS011;5411;58.386;15.560;2022-11-21T08:09:14;41.23;;;5.00;;
10719;SDS011;5411;58.386;15.560;2022-11-21T08:11:42;27.00;;;3.77;;
10719;SDS011;5411;58.386;15.560;2022-11-21T08:14:11;22.20;;;3.50;;
10719;SDS011;5411;58.386;15.560;2022-11-21T08:16:39;16.30;;;2.93;;
10719;SDS011;5411;58.386;15.560;2022-11-21T08:19:07;6.07;;;2.50;;
10719;SDS011;5411;58.386;15.560;2022-11-21T08:21:35;6.00;;;2.53;;
10719;SDS011;5411;58.386;15.560;2022-11-21T08:24:04;10.47;;;3.10;;
10719;SDS011;5411;58.386;15.560;2022-11-21T08:26:36;6.60;;;2.70;;
10719;SDS011;5411;58.386;15.560;2022-11-21T08:29:04;9.17;;;3.00;;
10719;SDS011;5411;58.386;15.560;2022-11-21T08:31:34;8.30;;;2.37;;
10719;SDS011;5411;58.386;15.560;2022-11-21T08:34:03;3.20;;;2.67;;
10719;SDS011;5411;58.386;15.560;2022-11-21T08:36:38;3.73;;;2.23;;
10719;SDS011;5411;58.386;15.560;2022-11-21T08:39:07;3.70;;;2.37;;
10719;SDS011;5411;58.386;15.560;2022-11-21T08:41:36;3.47;;;2.40;;
10719;SDS011;5411;58.386;15.560;2022-11-21T08:44:21;2.87;;;2.27;;
10719;SDS011;5411;58.386;15.560;2022-11-21T08:46:50;2.87;;;2.50;;
10719;SDS011;5411;58.386;15.560;2022-11-21T08:49:18;3.67;;;2.27;;
10719;SDS011;5411;58.386;15.560;2022-11-21T08:51:46;3.30;;;2.30;;
10719;SDS011;5411;58.386;15.560;2022-11-21T08:54:15;3.23;;;2.53;;
10719;SDS011;5411;58.386;15.560;2022-11-21T08:56:43;4.60;;;2.73;;
10719;SDS011;5411;58.386;15.560;2022-11-21T08:59:11;3.47;;;2.53;;
10719;SDS011;5411;58.386;15.560;2022-11-21T09:01:39;2.90;;;2.60;;
10719;SDS011;5411;58.386;15.560;2022-11-21T09:04:09;4.20;;;2.97;;
10719;SDS011;5411;58.386;15.560;2022-11-21T09:06:39;4.47;;;3.27;;
10719;SDS011;5411;58.386;15.560;2022-11-21T09:09:07;4.53;;;3.60;;
10719;SDS011;5411;58.386;15.560;2022-11-21T09:11:35;3.20;;;2.60;;
10719;SDS011;5411;58.386;15.560;2022-11-21T09:14:04;2.83;;;2.43;;
10719;SDS011;5411;58.386;15.560;2022-11-21T09:16:49;3.57;;;3.07;;
10719;SDS011;5411;58.386;15.560;2022-11-21T09:19:36;3.17;;;2.70;;
10719;SDS011;5411;58.386;15.560;2022-11-21T09:22:05;3.17;;;2.83;;
10719;SDS011;5411;58.386;15.560;2022-11-21T09:24:33;3.70;;;2.50;;
10719;SDS011;5411;58.386;15.560;2022-11-21T09:27:01;3.73;;;2.90;;
10719;SDS011;5411;58.386;15.560;2022-11-21T09:29:29;4.07;;;2.67;;
10719;SDS011;5411;58.386;15.560;2022-11-21T09:31:57;3.70;;;3.17;;
10719;SDS011;5411;58.386;15.560;2022-11-21T09:34:25;3.37;;;2.53;;
10719;SDS011;5411;58.386;15.560;2022-11-21T09:36:54;3.33;;;2.60;;
10719;SDS011;5411;58.386;15.560;2022-11-21T09:39:23;3.80;;;2.67;;
10719;SDS011;5411;58.386;15.560;2022-11-21T09:41:54;3.50;;;3.20;;
10719;SDS011;5411;58.386;15.560;2022-11-21T09:44:39;3.67;;;3.00;;
10719;SDS011;5411;58.386;15.560;2022-11-21T09:47:18;3.93;;;2.93;;
10719;SDS011;5411;58.386;15.560;2022-11-21T09:49:51;3.70;;;3.07;;
10719;SDS011;5411;58.386;15.560;2022-11-21T09:52:25;4.20;;;3.07;;
10719;SDS011;5411;58.386;15.560;2022-11-21T09:55:00;3.23;;;2.90;;
10719;SDS011;5411;58.386;15.560;2022-11-21T09:57:32;2.60;;;2.30;;
10719;SDS011;5411;58.386;15.560;2022-11-21T10:00:03;3.57;;;2.90;;
10719;SDS011;5411;58.386;15.560;2022-11-21T10:02:42;4.00;;;2.83;;
10719;SDS011;5411;58.386;15.560;2022-11-21T10:05:16;3.40;;;2.93;;
10719;SDS011;5411;58.386;15.560;2022-11-21T10:07:53;3.30;;;3.00;;
10719;SDS011;5411;58.386;15.560;2022-11-21T10:10:31;3.50;;;2.93;;
10719;SDS011;5411;58.386;15.560;2022-11-21T10:13:14;4.37;;;3.10;;
10719;SDS011;5411;58.386;15.560;2022-11-21T10:15:50;4.03;;;3.07;;
10719;SDS011;5411;58.386;15.560;2022-11-21T10:18:38;3.23;;;2.50;;
10719;SDS011;5411;58.386;15.560;2022-11-21T10:24:39;7.03;;;2.70;;
10719;SDS011;5411;58.386;15.560;2022-11-21T10:27:13;3.20;;;2.60;;
10719;SDS011;5411;58.386;15.560;2022-11-21T10:29:45;3.37;;;2.80;;
10719;SDS011;5411;58.386;15.560;2022-11-21T10:32:20;4.10;;;2.60;;
10719;SDS011;5411;58.386;15.560;2022-11-21T10:34:54;3.23;;;2.83;;
10719;SDS011;5411;58.386;15.560;2022-11-21T10:37:26;2.57;;;2.30;;
10719;SDS011;5411;58.386;15.560;2022-11-21T10:40:09;2.87;;;2.20;;
10719;SDS011;5411;58.386;15.560;2022-11-21T10:42:48;4.60;;;2.43;;
10719;SDS011;5411;58.386;15.560;2022-11-21T10:45:21;2.70;;;2.20;;
10719;SDS011;5411;58.386;15.560;2022-11-21T10:47:49;2.83;;;1.97;;
10719;SDS011;5411;58.386;15.560;2022-11-21T10:50:27;3.40;;;2.33;;
10719;SDS011;5411;58.386;15.560;2022-11-21T10:53:07;1.90;;;1.70;;
10719;SDS011;5411;58.386;15.560;2022-11-21T10:56:01;2.17;;;1.97;;
10719;SDS011;5411;58.386;15.560;2022-11-21T10:58:34;2.13;;;1.80;;
10719;SDS011;5411;58.386;15.560;2022-11-21T11:01:17;1.70;;;1.50;;
10719;SDS011;5411;58.386;15.560;2022-11-21T11:03:46;1.80;;;1.40;;
10719;SDS011;5411;58.386;15.560;2022-11-21T11:06:34;0.97;;;0.93;;
10719;SDS011;5411;58.386;15.560;2022-11-21T11:09:03;1.30;;;1.20;;
10719;SDS011;5411;58.386;15.560;2022-11-21T11:11:34;2.60;;;1.57;;
10719;SDS011;5411;58.386;15.560;2022-11-21T11:14:03;1.37;;;1.27;;
10719;SDS011;5411;58.386;15.560;2022-11-21T11:16:33;1.40;;;1.30;;
10719;SDS011;5411;58.386;15.560;2022-11-21T11:19:14;1.23;;;1.20;;
10719;SDS011;5411;58.386;15.560;2022-11-21T11:21:56;1.43;;;1.30;;
10719;SDS011;5411;58.386;15.560;2022-11-21T11:24:26;3.37;;;1.40;;
10719;SDS011;5411;58.386;15.560;2022-11-21T11:26:57;1.50;;;1.40;;
10719;SDS011;5411;58.386;15.560;2022-11-21T11:29:26;1.27;;;1.17;;
10719;SDS011;5411;58.386;15.560;2022-11-21T11:31:58;1.53;;;1.40;;
10719;SDS011;5411;58.386;15.560;2022-11-21T11:34:35;1.90;;;1.50;;
10719;SDS011;5411;58.386;15.560;2022-11-21T11:37:10;2.67;;;1.70;;
10719;SDS011;5411;58.386;15.560;2022-11-21T11:39:43;2.17;;;1.73;;
10719;SDS011;5411;58.386;15.560;2022-11-21T11:45:47;1.90;;;1.80;;
10719;SDS011;5411;58.386;15.560;2022-11-21T11:48:53;1.77;;;1.67;;
10719;SDS011;5411;58.386;15.560;2022-11-21T11:51:45;2.27;;;2.07;;
10719;SDS011;5411;58.386;15.560;2022-11-21T11:54:18;2.37;;;1.80;;
10719;SDS011;5411;58.386;15.560;2022-11-21T11:56:50;2.87;;;1.80;;
10719;SDS011;5411;58.386;15.560;2022-11-21T11:59:20;2.00;;;1.80;;
10719;SDS011;5411;58.386;15.560;2022-11-21T12:01:54;2.63;;;2.17;;
10719;SDS011;5411;58.386;15.560;2022-11-21T12:04:36;2.67;;;2.07;;
10719;SDS011;5411;58.386;15.560;2022-11-21T12:07:11;3.83;;;2.30;;
10719;SDS011;5411;58.386;15.560;2022-11-21T12:10:10;3.90;;;3.07;;
10719;SDS011;5411;58.386;15.560;2022-11-21T12:12:42;4.27;;;3.53;;
10719;SDS011;5411;58.386;15.560;2022-11-21T12:15:17;3.80;;;3.20;;
10719;SDS011;5411;58.386;15.560;2022-11-21T12:18:10;5.63;;;4.30;;
10719;SDS011;5411;58.386;15.560;2022-11-21T12:20:49;6.10;;;4.73;;
10719;SDS011;5411;58.386;15.560;2022-11-21T12:23:25;6.17;;;3.97;;
10719;SDS011;5411;58.386;15.560;2022-11-21T12:26:00;6.63;;;4.83;;
10719;SDS011;5411;58.386;15.560;2022-11-21T12:28:40;8.40;;;5.77;;
10719;SDS011;5411;58.386;15.560;2022-11-21T12:31:23;10.17;;;5.50;;
10719;SDS011;5411;58.386;15.560;2022-11-21T12:34:01;7.53;;;5.93;;
10719;SDS011;5411;58.386;15.560;2022-11-21T12:36:37;8.80;;;6.30;;
10719;SDS011;5411;58.386;15.560;2022-11-21T12:42:13;10.17;;;6.77;;
10719;SDS011;5411;58.386;15.560;2022-11-21T12:45:13;12.53;;;7.60;;
10719;SDS011;5411;58.386;15.560;2022-11-21T12:51:12;9.23;;;6.83;;
10719;SDS011;5411;58.386;15.560;2022-11-21T12:54:16;9.00;;;6.53;;
10719;SDS011;5411;58.386;15.560;2022-11-21T12:57:05;9.13;;;6.40;;
10719;SDS011;5411;58.386;15.560;2022-11-21T12:59:47;9.83;;;6.80;;
10719;SDS011;5411;58.386;15.560;2022-11-21T13:02:27;9.73;;;6.57;;
10719;SDS011;5411;58.386;15.560;2022-11-21T13:05:03;8.53;;;6.03;;
10719;SDS011;5411;58.386;15.560;2022-11-21T13:07:33;10.47;;;6.47;;
10719;SDS011;5411;58.386;15.560;2022-11-21T13:10:01;12.03;;;6.93;;
10719;SDS011;5411;58.386;15.560;2022-11-21T13:12:33;8.60;;;6.27;;
10719;SDS011;5411;58.386;15.560;2022-11-21T13:15:14;10.40;;;7.20;;
10719;SDS011;5411;58.386;15.560;2022-11-21T13:17:46;12.73;;;7.60;;
10719;SDS011;5411;58.386;15.560;2022-11-21T13:20:25;12.60;;;8.30;;
10719;SDS011;5411;58.386;15.560;2022-11-21T13:22:58;11.30;;;7.03;;
10719;SDS011;5411;58.386;15.560;2022-11-21T13:25:42;14.27;;;7.83;;
10719;SDS011;5411;58.386;15.560;2022-11-21T13:31:02;12.73;;;8.13;;
10719;SDS011;5411;58.386;15.560;2022-11-21T13:33:48;11.30;;;8.87;;
10719;SDS011;5411;58.386;15.560;2022-11-21T13:36:38;12.07;;;7.23;;
10719;SDS011;5411;58.386;15.560;2022-11-21T13:42:10;11.03;;;7.63;;
10719;SDS011;5411;58.386;15.560;2022-11-21T13:44:56;10.60;;;7.40;;
10719;SDS011;5411;58.386;15.560;2022-11-21T13:47:35;10.97;;;7.60;;
10719;SDS011;5411;58.386;15.560;2022-11-21T13:50:29;13.63;;;8.47;;
10719;SDS011;5411;58.386;15.560;2022-11-21T13:56:26;11.43;;;6.67;;
10719;SDS011;5411;58.386;15.560;2022-11-21T13:59:11;8.60;;;5.03;;
10719;SDS011;5411;58.386;15.560;2022-11-21T14:01:58;8.10;;;5.93;;
10719;SDS011;5411;58.386;15.560;2022-11-21T14:04:50;10.33;;;5.83;;
10719;SDS011;5411;58.386;15.560;2022-11-21T14:07:40;8.30;;;5.13;;
10719;SDS011;5411;58.386;15.560;2022-11-21T14:10:17;7.73;;;4.80;;
10719;SDS011;5411;58.386;15.560;2022-11-21T14:12:58;7.43;;;5.63;;
10719;SDS011;5411;58.386;15.560;2022-11-21T14:15:29;9.93;;;6.03;;
10719;SDS011;5411;58.386;15.560;2022-11-21T14:18:11;7.83;;;5.00;;
10719;SDS011;5411;58.386;15.560;2022-11-21T14:20:47;7.43;;;5.90;;
10719;SDS011;5411;58.386;15.560;2022-11-21T14:23:20;7.50;;;5.77;;
10719;SDS011;5411;58.386;15.560;2022-11-21T14:25:49;8.10;;;5.93;;
10719;SDS011;5411;58.386;15.560;2022-11-21T14:28:23;8.97;;;6.30;;
10719;SDS011;5411;58.386;15.560;2022-11-21T14:30:55;9.60;;;5.97;;
10719;SDS011;5411;58.386;15.560;2022-11-21T14:33:28;10.00;;;6.40;;
10719;SDS011;5411;58.386;15.560;2022-11-21T14:35:59;8.97;;;6.03;;
10719;SDS011;5411;58.386;15.560;2022-11-21T14:38:34;8.10;;;5.80;;
10719;SDS011;5411;58.386;15.560;2022-11-21T14:41:10;11.40;;;5.87;;
10719;SDS011;5411;58.386;15.560;2022-11-21T14:44:15;9.27;;;6.33;;
10719;SDS011;5411;58.386;15.560;2022-11-21T14:46:48;6.93;;;4.83;;
10719;SDS011;5411;58.386;15.560;2022-11-21T14:49:19;9.13;;;6.60;;
10719;SDS011;5411;58.386;15.560;2022-11-21T14:51:52;10.77;;;5.97;;
10719;SDS011;5411;58.386;15.560;2022-11-21T14:54:26;9.93;;;6.03;;
10719;SDS011;5411;58.386;15.560;2022-11-21T14:56:58;11.33;;;6.43;;
10719;SDS011;5411;58.386;15.560;2022-11-21T14:59:30;11.23;;;5.97;;
10719;SDS011;5411;58.386;15.560;2022-11-21T15:02:01;10.23;;;6.60;;
10719;SDS011;5411;58.386;15.560;2022-11-21T15:04:34;8.40;;;6.00;;
10719;SDS011;5411;58.386;15.560;2022-11-21T15:07:03;11.53;;;6.10;;
10719;SDS011;5411;58.386;15.560;2022-11-21T15:09:31;10.67;;;4.77;;
10719;SDS011;5411;58.386;15.560;2022-11-21T15:12:21;6.63;;;4.90;;
10719;SDS011;5411;58.386;15.560;2022-11-21T15:14:55;7.30;;;5.57;;
10719;SDS011;5411;58.386;15.560;2022-11-21T15:17:28;5.73;;;4.50;;
10719;SDS011;5411;58.386;15.560;2022-11-21T15:20:04;8.40;;;5.63;;
10719;SDS011;5411;58.386;15.560;2022-11-21T15:22:54;8.07;;;4.93;;
10719;SDS011;5411;58.386;15.560;2022-11-21T15:25:24;8.23;;;5.37;;
10719;SDS011;5411;58.386;15.560;2022-11-21T15:28:05;9.13;;;5.13;;
10719;SDS011;5411;58.386;15.560;2022-11-21T15:30:37;7.37;;;5.10;;
10719;SDS011;5411;58.386;15.560;2022-11-21T15:33:08;6.23;;;5.50;;
10719;SDS011;5411;58.386;15.560;2022-11-21T15:35:39;7.20;;;4.73;;
10719;SDS011;5411;58.386;15.560;2022-11-21T15:38:16;5.97;;;4.80;;
10719;SDS011;5411;58.386;15.560;2022-11-21T15:41:03;8.90;;;4.30;;